Time;durP1;ratioP1;P1;durP2;ratioP2;P2;SDS_P1;SDS_P2;PMS_P1;PMS_P2;Temp;Humidity;BMP_temperature;BMP_pressure;BME280_temperature;BME280_humidity;BME280_pressure;Samples;Min_cycle;Max_cycle;Signal;HPM_P1;HPM_P2
2022/06/22 00:02:08;;;;;;;5.70;3.40;;;19.10;99.90;;;;;;5014060;28;20575;-76
2022/06/22 00:04:36;;;;;;;5.05;3.35;;;19.00;99.90;;;;;;5007235;28;20204;-76
2022/06/22 00:07:10;;;;;;;7.63;3.13;;;19.00;99.90;;;;;;5014553;28;20173;-78
2022/06/22 00:09:39;;;;;;;7.72;3.47;;;19.00;99.90;;;;;;5029022;28;20189;-77
2022/06/22 00:12:07;;;;;;;6.72;3.38;;;19.00;99.90;;;;;;5014514;28;20212;-77
2022/06/22 00:14:45;;;;;;;8.00;3.20;;;18.90;99.90;;;;;;5028624;28;20632;-77
2022/06/22 00:17:20;;;;;;;5.95;3.13;;;18.80;99.90;;;;;;5014634;28;20220;-78
2022/06/22 00:19:47;;;;;;;6.05;2.65;;;18.90;99.90;;;;;;5032382;28;20726;-77
2022/06/22 00:22:21;;;;;;;6.10;3.05;;;18.90;99.90;;;;;;5013418;28;20696;-77
2022/06/22 00:24:56;;;;;;;4.97;2.67;;;18.90;99.90;;;;;;5030032;28;20172;-77
2022/06/22 00:27:35;;;;;;;7.00;3.20;;;18.80;99.90;;;;;;5012089;28;20719;-76
2022/06/22 00:30:18;;;;;;;6.13;2.97;;;18.80;99.90;;;;;;5010786;28;20220;-77
2022/06/22 00:33:20;;;;;;;6.03;2.92;;;18.80;99.90;;;;;;5025086;28;20197;-76
2022/06/22 00:35:51;;;;;;;7.68;2.95;;;18.80;99.90;;;;;;5000801;28;20197;-77
2022/06/22 00:38:26;;;;;;;4.63;2.65;;;18.80;99.90;;;;;;5034883;28;20200;-77
2022/06/22 00:40:55;;;;;;;9.48;4.30;;;18.80;99.90;;;;;;5022893;28;20215;-77
2022/06/22 00:43:24;;;;;;;7.90;3.28;;;18.80;99.90;;;;;;5026184;28;20222;-77
2022/06/22 00:45:50;;;;;;;6.22;3.08;;;18.70;99.90;;;;;;5021606;28;20171;-77
2022/06/22 00:48:36;;;;;;;4.10;2.63;;;18.80;99.90;;;;;;5030613;28;20279;-76
2022/06/22 00:51:06;;;;;;;7.03;2.60;;;18.80;99.90;;;;;;5023981;28;20209;-77
2022/06/22 00:53:37;;;;;;;5.13;2.40;;;18.80;99.90;;;;;;5037347;28;20200;-77
2022/06/22 00:56:32;;;;;;;3.05;2.25;;;18.80;99.90;;;;;;5018394;28;20221;-77
2022/06/22 00:59:05;;;;;;;6.05;2.50;;;18.80;99.90;;;;;;5002130;28;20228;-78
2022/06/22 01:02:03;;;;;;;3.30;2.10;;;18.80;99.90;;;;;;5030042;28;20234;-77
2022/06/22 01:04:47;;;;;;;4.30;1.65;;;18.80;99.90;;;;;;5006492;28;20212;-78
2022/06/22 01:07:33;;;;;;;2.30;1.70;;;18.80;99.90;;;;;;5042330;28;20171;-77
2022/06/22 01:10:20;;;;;;;3.25;1.80;;;18.80;99.90;;;;;;5031376;28;20196;-77
2022/06/22 01:12:52;;;;;;;4.75;1.80;;;18.80;99.90;;;;;;5019704;28;20244;-77
2022/06/22 01:15:27;;;;;;;3.67;1.77;;;18.80;99.90;;;;;;5024460;28;20742;-77
2022/06/22 01:18:08;;;;;;;4.70;1.80;;;18.70;99.90;;;;;;5018975;28;20211;-75
2022/06/22 01:21:05;;;;;;;3.90;2.28;;;18.60;99.90;;;;;;5013613;28;20227;-75
2022/06/22 01:23:43;;;;;;;4.57;2.33;;;18.60;99.90;;;;;;5017072;28;20698;-75
2022/06/22 01:26:47;;;;;;;4.85;2.20;;;18.60;99.90;;;;;;5032152;28;20199;-75
2022/06/22 01:29:15;;;;;;;5.30;2.17;;;18.50;99.90;;;;;;5019237;28;20708;-76
2022/06/22 01:31:49;;;;;;;4.72;2.10;;;18.40;99.90;;;;;;5024689;28;20246;-76
2022/06/22 01:34:17;;;;;;;3.42;2.30;;;18.40;99.90;;;;;;5016168;28;20195;-76
2022/06/22 01:36:44;;;;;;;3.38;2.38;;;18.40;99.90;;;;;;5016368;28;20658;-76
2022/06/22 01:39:13;;;;;;;3.28;2.05;;;18.30;99.90;;;;;;5027932;28;20558;-75
2022/06/22 01:41:38;;;;;;;3.35;1.80;;;18.40;99.90;;;;;;5022103;28;20239;-76
2022/06/22 01:44:19;;;;;;;4.43;2.38;;;18.30;99.90;;;;;;5009622;28;20258;-76
2022/06/22 01:47:08;;;;;;;6.20;2.15;;;18.30;99.90;;;;;;5018526;28;20697;-76
2022/06/22 01:50:05;;;;;;;5.68;2.38;;;18.30;99.90;;;;;;5024021;28;20278;-76
2022/06/22 01:52:59;;;;;;;3.35;2.00;;;18.30;99.90;;;;;;5015826;28;20674;-75
2022/06/22 01:55:50;;;;;;;4.75;2.10;;;18.20;99.90;;;;;;5027322;28;20215;-75
2022/06/22 01:58:18;;;;;;;3.88;2.05;;;18.10;99.90;;;;;;5024697;28;20178;-77
2022/06/22 02:00:57;;;;;;;3.95;2.10;;;18.10;99.90;;;;;;5028836;28;20672;-76
2022/06/22 02:03:47;;;;;;;5.85;2.35;;;18.10;99.90;;;;;;5013860;28;20246;-75
2022/06/22 02:09:06;;;;;;;3.97;2.40;;;18.20;99.90;;;;;;5028210;28;20257;-75
2022/06/22 02:11:38;;;;;;;4.80;2.33;;;18.20;99.90;;;;;;5011056;28;20224;-76
2022/06/22 02:14:18;;;;;;;2.90;1.90;;;18.10;99.90;;;;;;5012735;28;20575;-77
2022/06/22 02:16:52;;;;;;;5.70;2.65;;;18.10;99.90;;;;;;5011907;28;20208;-76
2022/06/22 02:19:18;;;;;;;4.95;2.35;;;18.10;99.90;;;;;;5026535;28;20283;-76
2022/06/22 02:21:53;;;;;;;4.65;2.05;;;18.10;99.90;;;;;;5024820;28;20536;-76
2022/06/22 02:24:38;;;;;;;4.55;2.25;;;18.10;99.90;;;;;;5023871;28;20195;-76
2022/06/22 02:27:07;;;;;;;4.97;2.10;;;18.00;99.90;;;;;;5025122;28;20255;-77
2022/06/22 02:29:44;;;;;;;4.95;2.60;;;18.00;99.90;;;;;;5020381;28;20206;-77
2022/06/22 02:32:15;;;;;;;6.97;2.50;;;17.90;99.90;;;;;;5014606;28;20204;-78
2022/06/22 02:34:46;;;;;;;5.40;2.25;;;17.90;99.90;;;;;;5037207;28;20209;-77
2022/06/22 02:37:11;;;;;;;7.13;2.10;;;17.90;99.90;;;;;;5039580;28;20266;-76
2022/06/22 02:39:42;;;;;;;5.00;2.70;;;18.00;99.90;;;;;;5044176;28;20167;-76
2022/06/22 02:44:52;;;;;;;6.10;2.20;;;18.00;99.90;;;;;;5043297;28;20258;-75
2022/06/22 02:47:31;;;;;;;2.63;2.17;;;17.90;99.90;;;;;;5038561;28;20200;-75
2022/06/22 02:50:15;;;;;;;4.28;1.98;;;17.90;99.90;;;;;;5040930;28;20717;-75
2022/06/22 02:52:49;;;;;;;6.75;2.63;;;17.80;99.90;;;;;;5048323;23;20647;-73
2022/06/22 02:55:18;;;;;;;4.30;2.80;;;17.80;99.90;;;;;;5022086;28;20255;-73
2022/06/22 02:57:56;;;;;;;5.15;2.58;;;17.80;99.90;;;;;;5019750;28;20279;-73
2022/06/22 03:00:34;;;;;;;4.90;2.90;;;17.70;99.90;;;;;;5021813;28;20200;-73
2022/06/22 03:03:13;;;;;;;3.95;2.40;;;17.70;99.90;;;;;;5027888;28;20270;-73
2022/06/22 03:05:40;;;;;;;5.07;2.78;;;17.80;99.90;;;;;;5033276;28;20204;-73
2022/06/22 03:08:08;;;;;;;6.20;2.25;;;17.80;99.90;;;;;;5037981;28;20212;-72
2022/06/22 03:10:41;;;;;;;5.85;2.75;;;17.80;99.90;;;;;;5033145;28;20208;-73
2022/06/22 03:13:13;;;;;;;6.28;2.75;;;18.00;99.90;;;;;;5033200;28;20263;-72
2022/06/22 03:15:39;;;;;;;5.35;2.65;;;18.00;99.90;;;;;;5039674;28;20211;-72
2022/06/22 03:18:08;;;;;;;5.93;2.28;;;18.00;99.90;;;;;;5032561;28;20312;-72
2022/06/22 03:20:58;;;;;;;4.00;2.60;;;18.00;99.90;;;;;;5014624;28;20204;-72
2022/06/22 03:23:40;;;;;;;5.53;2.90;;;18.30;99.90;;;;;;5014815;28;20204;-72
2022/06/22 03:26:13;;;;;;;6.28;2.90;;;18.80;99.90;;;;;;5032560;28;20204;-72
2022/06/22 03:28:44;;;;;;;4.80;2.95;;;20.00;99.90;;;;;;5030467;28;20739;-73
2022/06/22 03:31:20;;;;;;;3.38;2.45;;;21.40;99.90;;;;;;5006636;28;20208;-73
2022/06/22 03:33:53;;;;;;;3.95;2.70;;;22.60;99.90;;;;;;5028227;28;20168;-72
2022/06/22 03:36:24;;;;;;;3.38;1.88;;;23.50;99.90;;;;;;5014881;28;20615;-73
2022/06/22 03:38:59;;;;;;;3.70;2.63;;;24.30;99.90;;;;;;5024823;28;20227;-74
2022/06/22 03:41:28;;;;;;;6.57;3.00;;;25.00;99.90;;;;;;5031278;28;20286;-73
2022/06/22 03:44:09;;;;;;;2.80;1.83;;;25.90;99.90;;;;;;5031461;28;20211;-72
2022/06/22 03:46:49;;;;;;;7.75;2.70;;;25.10;99.90;;;;;;5032136;28;20208;-73
2022/06/22 03:49:29;;;;;;;3.78;2.50;;;26.90;99.90;;;;;;5031991;28;20655;-73
2022/06/22 03:52:12;;;;;;;7.45;3.10;;;28.30;99.90;;;;;;5025548;28;20338;-73
2022/06/22 03:54:54;;;;;;;3.60;2.42;;;29.00;99.90;;;;;;5032523;28;20200;-74
2022/06/22 03:57:25;;;;;;;4.18;2.58;;;28.90;99.90;;;;;;5032294;28;20207;-72
2022/06/22 03:59:51;;;;;;;4.10;2.83;;;28.90;99.90;;;;;;5031920;28;20224;-72
2022/06/22 04:02:18;;;;;;;7.50;3.30;;;29.50;99.90;;;;;;5031653;28;20211;-72
2022/06/22 04:04:52;;;;;;;5.78;2.58;;;29.40;99.10;;;;;;5031848;28;20208;-73
2022/06/22 04:07:18;;;;;;;5.60;2.85;;;29.60;98.60;;;;;;5010692;28;20173;-72
2022/06/22 04:09:53;;;;;;;3.58;2.53;;;30.70;96.70;;;;;;5031662;28;20171;-72
2022/06/22 04:12:31;;;;;;;6.13;2.35;;;31.70;94.60;;;;;;5031799;28;20711;-73
2022/06/22 04:15:19;;;;;;;5.22;2.85;;;31.20;94.20;;;;;;5013812;28;20232;-72
2022/06/22 04:17:51;;;;;;;3.95;2.63;;;31.00;93.90;;;;;;5013437;28;20220;-72
2022/06/22 04:20:24;;;;;;;5.40;2.80;;;32.40;92.80;;;;;;5014030;28;20204;-73
2022/06/22 04:22:56;;;;;;;4.65;3.00;;;32.50;91.20;;;;;;5023995;28;20266;-72
2022/06/22 04:25:33;;;;;;;4.22;2.30;;;31.50;91.40;;;;;;5031273;28;20661;-73
2022/06/22 04:28:05;;;;;;;6.07;2.92;;;31.50;91.40;;;;;;5025642;28;20628;-72
2022/06/22 04:30:35;;;;;;;7.05;5.70;;;31.10;91.70;;;;;;5031321;28;20643;-72
2022/06/22 04:33:00;;;;;;;16.48;12.43;;;31.10;91.90;;;;;;5023604;28;20212;-72
2022/06/22 04:35:44;;;;;;;9.15;6.30;;;31.60;91.80;;;;;;5030989;28;20195;-73
2022/06/22 04:38:20;;;;;;;13.25;10.35;;;31.70;91.10;;;;;;5026455;28;20714;-72
2022/06/22 04:41:13;;;;;;;12.98;10.25;;;31.70;91.00;;;;;;5029407;28;20195;-72
2022/06/22 04:43:39;;;;;;;11.20;7.43;;;31.90;90.60;;;;;;5027865;28;20196;-72
2022/06/22 04:46:08;;;;;;;7.90;4.63;;;32.00;90.00;;;;;;5014325;28;20261;-73
2022/06/22 04:48:49;;;;;;;5.32;3.20;;;32.30;89.40;;;;;;5003749;28;20172;-73
2022/06/22 04:51:23;;;;;;;8.30;6.35;;;32.80;88.70;;;;;;5017627;28;20259;-72
2022/06/22 04:54:00;;;;;;;6.45;3.80;;;33.00;87.70;;;;;;5002860;28;20196;-73
2022/06/22 04:56:34;;;;;;;5.22;3.83;;;33.90;85.50;;;;;;5030030;28;20706;-73
2022/06/22 04:59:01;;;;;;;9.07;3.40;;;33.60;84.30;;;;;;5015383;28;20208;-73
2022/06/22 05:01:44;;;;;;;4.45;3.55;;;33.60;84.50;;;;;;5008562;28;20295;-73
2022/06/22 05:04:22;;;;;;;5.97;3.53;;;33.20;84.30;;;;;;5014966;28;20204;-72
2022/06/22 05:07:21;;;;;;;7.15;3.90;;;33.50;84.00;;;;;;5017718;28;20629;-73
2022/06/22 05:09:54;;;;;;;5.75;3.90;;;33.50;83.30;;;;;;5018402;28;20208;-72
2022/06/22 05:12:23;;;;;;;4.03;3.55;;;34.10;82.30;;;;;;5026143;28;20269;-73
2022/06/22 05:14:52;;;;;;;3.60;3.22;;;33.90;82.30;;;;;;5017515;28;20738;-73
2022/06/22 05:17:27;;;;;;;3.90;3.10;;;34.70;79.20;;;;;;5014451;28;20310;-73
2022/06/22 05:20:04;;;;;;;4.60;3.42;;;36.30;77.40;;;;;;5003120;28;20209;-73
2022/06/22 05:22:29;;;;;;;4.95;3.42;;;36.10;75.80;;;;;;5007049;28;20203;-72
2022/06/22 05:25:01;;;;;;;6.18;3.63;;;36.70;74.20;;;;;;5026734;28;20203;-73
2022/06/22 05:27:34;;;;;;;5.50;3.40;;;36.50;73.30;;;;;;5019713;28;20243;-73
2022/06/22 05:30:07;;;;;;;5.63;3.17;;;35.70;73.40;;;;;;5014547;28;20212;-73
2022/06/22 05:32:44;;;;;;;7.30;3.60;;;36.10;72.50;;;;;;5009064;28;20262;-73
2022/06/22 05:35:15;;;;;;;5.72;4.18;;;35.60;72.90;;;;;;5006454;28;20235;-74
2022/06/22 05:37:47;;;;;;;4.75;3.60;;;35.70;72.90;;;;;;5018556;28;20274;-72
2022/06/22 05:40:14;;;;;;;4.13;3.72;;;35.60;72.20;;;;;;5019161;28;20206;-74
2022/06/22 05:42:40;;;;;;;5.78;3.90;;;35.30;73.70;;;;;;5021559;28;20201;-73
2022/06/22 05:45:22;;;;;;;5.22;3.60;;;35.70;73.10;;;;;;5017728;28;20207;-73
2022/06/22 05:47:48;;;;;;;3.90;3.60;;;36.20;70.60;;;;;;5018575;28;20231;-74
2022/06/22 05:50:26;;;;;;;5.05;3.63;;;35.70;70.30;;;;;;5015031;28;20220;-73
2022/06/22 05:53:13;;;;;;;5.18;3.58;;;35.80;70.00;;;;;;5016719;28;20216;-73
2022/06/22 05:55:38;;;;;;;6.72;3.30;;;36.60;69.60;;;;;;5018854;28;20211;-73
2022/06/22 05:58:13;;;;;;;5.18;3.03;;;36.30;69.10;;;;;;5025232;28;20237;-74
2022/06/22 06:00:45;;;;;;;5.13;2.88;;;36.40;68.70;;;;;;5003355;28;20182;-74
2022/06/22 06:03:38;;;;;;;5.28;3.45;;;36.60;68.70;;;;;;5016564;28;20620;-73
2022/06/22 06:06:11;;;;;;;4.25;2.70;;;36.20;68.50;;;;;;5017927;28;20214;-75
2022/06/22 06:08:42;;;;;;;5.05;2.63;;;36.50;67.40;;;;;;5009214;28;20203;-74
2022/06/22 06:11:15;;;;;;;4.97;2.95;;;36.80;65.60;;;;;;5030277;28;20332;-74
2022/06/22 06:13:49;;;;;;;4.70;2.80;;;37.30;64.60;;;;;;5028190;28;20688;-74
2022/06/22 06:16:25;;;;;;;5.20;2.72;;;36.80;64.60;;;;;;5026925;28;20187;-74
2022/06/22 06:18:55;;;;;;;5.82;2.50;;;36.90;64.70;;;;;;5015786;28;20495;-74
2022/06/22 06:21:24;;;;;;;4.10;3.00;;;36.70;63.90;;;;;;5027174;28;20609;-75
2022/06/22 06:24:01;;;;;;;6.22;3.08;;;36.70;64.30;;;;;;5026198;28;20207;-74
2022/06/22 06:29:42;;;;;;;4.43;2.97;;;36.80;65.10;;;;;;5022320;28;20222;-74
2022/06/22 06:32:30;;;;;;;3.42;2.53;;;37.30;63.30;;;;;;5027716;28;20215;-74
2022/06/22 06:35:10;;;;;;;3.35;2.30;;;37.40;61.50;;;;;;5016113;28;20215;-74
2022/06/22 06:37:52;;;;;;;4.40;2.25;;;37.40;60.80;;;;;;5012084;28;20196;-74
2022/06/22 06:40:27;;;;;;;4.35;2.70;;;38.60;59.90;;;;;;5024629;28;20181;-73
2022/06/22 06:43:05;;;;;;;5.50;2.30;;;39.00;59.10;;;;;;5025983;28;20191;-73
2022/06/22 06:45:32;;;;;;;5.50;2.65;;;38.60;58.60;;;;;;5026091;28;20207;-75
2022/06/22 06:48:02;;;;;;;3.25;2.00;;;38.40;59.90;;;;;;5026631;28;20200;-73
2022/06/22 06:50:37;;;;;;;3.05;2.13;;;37.80;57.30;;;;;;5001490;28;20208;-74
2022/06/22 06:53:19;;;;;;;12.73;2.40;;;37.50;57.20;;;;;;5023615;28;20207;-74
2022/06/22 06:55:54;;;;;;;4.63;2.25;;;38.10;57.20;;;;;;5023401;28;20250;-73
2022/06/22 06:58:35;;;;;;;3.53;1.98;;;38.50;56.70;;;;;;5022260;28;20246;-74
2022/06/22 07:01:01;;;;;;;2.88;1.80;;;37.90;57.40;;;;;;5022043;28;20188;-71
2022/06/22 07:03:38;;;;;;;4.95;1.85;;;38.20;57.30;;;;;;5032910;28;20637;-73
2022/06/22 07:06:04;;;;;;;3.03;1.75;;;39.00;55.70;;;;;;5024905;28;20235;-72
2022/06/22 07:08:46;;;;;;;2.58;1.90;;;39.00;54.80;;;;;;5023518;28;20227;-75
2022/06/22 07:11:31;;;;;;;3.50;2.00;;;39.00;55.20;;;;;;5002902;28;20299;-74
2022/06/22 07:14:18;;;;;;;3.20;1.80;;;39.60;54.70;;;;;;5002394;28;20230;-73
2022/06/22 07:16:44;;;;;;;2.90;1.98;;;40.50;54.40;;;;;;5013007;28;20263;-72
2022/06/22 07:19:21;;;;;;;3.03;1.98;;;41.00;53.00;;;;;;5018532;28;20183;-73
2022/06/22 07:21:53;;;;;;;3.15;2.28;;;39.90;53.20;;;;;;5025623;28;20196;-73
2022/06/22 07:25:02;;;;;;;4.63;2.10;;;40.00;53.80;;;;;;5003454;28;20289;-73
2022/06/22 07:27:34;;;;;;;5.57;2.45;;;38.90;53.90;;;;;;4994000;28;20572;-73
2022/06/22 07:30:44;;;;;;;4.65;2.33;;;39.60;54.60;;;;;;5004197;28;20219;-74
2022/06/22 07:33:18;;;;;;;2.50;1.88;;;39.70;53.60;;;;;;5003669;28;20283;-74
2022/06/22 07:35:54;;;;;;;2.13;1.90;;;39.80;53.00;;;;;;5016079;28;20374;-73
2022/06/22 07:38:27;;;;;;;3.33;2.33;;;39.90;53.90;;;;;;5006113;28;20234;-73
2022/06/22 07:43:38;;;;;;;2.97;2.20;;;39.60;52.60;;;;;;5029375;28;20202;-73
2022/06/22 07:46:06;;;;;;;3.58;1.90;;;40.00;52.60;;;;;;5015169;28;20172;-73
2022/06/22 07:48:37;;;;;;;5.60;3.00;;;39.90;52.60;;;;;;5020737;28;20275;-73
2022/06/22 07:51:06;;;;;;;3.13;2.20;;;40.20;52.90;;;;;;5008901;28;20704;-73
2022/06/22 07:53:48;;;;;;;3.30;1.85;;;40.40;52.60;;;;;;5019527;28;20227;-73
2022/06/22 07:56:23;;;;;;;2.90;2.15;;;40.50;51.80;;;;;;5009902;28;20208;-73
2022/06/22 07:58:51;;;;;;;3.40;2.17;;;39.90;52.00;;;;;;5002674;28;20195;-73
2022/06/22 08:01:23;;;;;;;3.80;2.10;;;40.10;52.10;;;;;;5019981;28;20215;-73
2022/06/22 08:03:55;;;;;;;6.00;4.35;;;39.60;51.60;;;;;;5002679;28;20180;-74
2022/06/22 08:06:26;;;;;;;4.03;1.90;;;39.10;52.70;;;;;;5005405;28;20209;-72
2022/06/22 08:09:06;;;;;;;3.70;2.13;;;39.00;52.50;;;;;;5010878;28;20200;-73
2022/06/22 08:11:39;;;;;;;2.78;2.05;;;38.70;52.60;;;;;;5013697;28;20226;-73
2022/06/22 08:14:27;;;;;;;4.05;1.95;;;38.50;52.40;;;;;;5003896;28;20312;-75
2022/06/22 08:17:00;;;;;;;3.30;1.80;;;37.70;52.80;;;;;;4994882;28;20291;-72
2022/06/22 08:19:28;;;;;;;12.43;10.90;;;37.70;53.60;;;;;;5010321;28;20562;-72
2022/06/22 08:21:58;;;;;;;2.38;2.10;;;37.70;53.30;;;;;;5007008;28;20288;-72
2022/06/22 08:24:25;;;;;;;4.07;2.00;;;37.60;52.90;;;;;;5001130;28;20228;-72
2022/06/22 08:26:53;;;;;;;3.13;1.40;;;37.40;52.90;;;;;;5001226;28;20266;-72
2022/06/22 08:29:22;;;;;;;2.50;1.27;;;36.70;53.20;;;;;;5015783;28;20204;-72
2022/06/22 08:31:56;;;;;;;4.72;3.42;;;35.70;53.90;;;;;;5003938;28;20636;-72
2022/06/22 08:34:31;;;;;;;7.15;3.20;;;36.80;55.50;;;;;;5017935;28;20229;-71
2022/06/22 08:37:05;;;;;;;6.30;3.28;;;37.40;54.30;;;;;;5017906;28;20645;-72
2022/06/22 08:39:34;;;;;;;4.15;2.60;;;37.60;53.70;;;;;;5009762;28;20272;-72
2022/06/22 08:42:15;;;;;;;5.95;2.60;;;37.80;53.50;;;;;;5022358;28;20712;-72
2022/06/22 08:44:52;;;;;;;3.08;1.77;;;37.90;53.40;;;;;;5008666;28;20319;-72
2022/06/22 08:47:27;;;;;;;3.50;2.30;;;37.80;53.80;;;;;;5005340;28;20195;-72
2022/06/22 08:49:58;;;;;;;3.00;1.42;;;38.10;53.50;;;;;;5005248;28;20203;-72
2022/06/22 08:52:48;;;;;;;4.47;1.67;;;38.00;52.90;;;;;;5032593;23;20252;-75
2022/06/22 08:55:51;;;;;;;4.30;2.33;;;38.10;52.80;;;;;;5017877;28;20183;-76
2022/06/22 08:59:05;;;;;;;3.55;2.45;;;37.90;52.50;;;;;;4985806;28;20656;-75
2022/06/22 09:02:21;;;;;;;11.20;7.82;;;37.40;52.30;;;;;;5002259;28;20222;-75
2022/06/22 09:05:05;;;;;;;8.60;3.47;;;37.50;53.50;;;;;;4986769;28;20208;-75
2022/06/22 09:08:08;;;;;;;4.28;2.05;;;37.50;52.80;;;;;;5014401;28;20220;-74
2022/06/22 09:11:02;;;;;;;2.42;1.10;;;37.30;52.30;;;;;;5019459;28;20211;-75
2022/06/22 09:13:41;;;;;;;2.08;1.20;;;37.30;52.20;;;;;;4996447;28;20239;-74
2022/06/22 09:16:39;;;;;;;4.90;1.40;;;37.70;52.30;;;;;;5010415;28;20194;-74
2022/06/22 09:19:26;;;;;;;3.95;1.45;;;37.20;52.10;;;;;;4987807;28;20187;-75
2022/06/22 09:22:03;;;;;;;2.97;1.38;;;36.60;54.90;;;;;;5023948;28;20208;-75
2022/06/22 09:24:38;;;;;;;3.05;1.77;;;36.50;55.50;;;;;;5015804;28;20208;-75
2022/06/22 09:27:14;;;;;;;4.40;2.35;;;36.30;55.70;;;;;;5022329;28;20211;-75
2022/06/22 09:29:58;;;;;;;3.47;2.22;;;36.40;55.20;;;;;;5017026;28;20214;-76
2022/06/22 09:32:27;;;;;;;1.60;1.25;;;36.20;55.00;;;;;;5025968;28;20883;-74
2022/06/22 09:35:10;;;;;;;3.35;1.55;;;35.90;54.00;;;;;;5025550;28;20204;-75
2022/06/22 09:37:58;;;;;;;4.70;1.67;;;35.30;54.90;;;;;;5020429;28;20630;-70
2022/06/22 09:40:54;;;;;;;2.60;1.30;;;35.30;54.30;;;;;;5025100;28;20235;-76
2022/06/22 09:44:01;;;;;;;1.77;1.13;;;34.70;53.50;;;;;;5026082;28;20235;-76
2022/06/22 09:46:53;;;;;;;1.88;1.17;;;34.10;55.50;;;;;;4979490;28;20249;-76
2022/06/22 09:50:04;;;;;;;2.13;1.50;;;33.70;56.40;;;;;;5038977;28;20177;-76
2022/06/22 09:53:01;;;;;;;3.78;2.60;;;34.00;56.20;;;;;;5021103;28;20331;-75
2022/06/22 09:58:51;;;;;;;3.53;1.80;;;33.30;58.20;;;;;;5023834;28;20230;-76
2022/06/22 10:01:45;;;;;;;6.07;2.30;;;32.90;57.10;;;;;;5009040;28;20199;-75
2022/06/22 10:04:25;;;;;;;2.63;1.08;;;32.90;58.50;;;;;;5027272;28;20200;-76
2022/06/22 10:07:13;;;;;;;7.07;2.58;;;32.30;56.50;;;;;;5028857;28;20172;-75
2022/06/22 10:09:53;;;;;;;7.10;3.05;;;32.00;58.60;;;;;;5022887;28;20223;-76
2022/06/22 10:12:48;;;;;;;3.15;1.40;;;32.20;59.00;;;;;;5023181;28;20290;-75
2022/06/22 10:15:28;;;;;;;3.78;1.70;;;32.30;59.20;;;;;;5024568;28;20705;-76
2022/06/22 10:18:23;;;;;;;4.18;2.15;;;31.40;58.80;;;;;;5018235;28;20213;-76
2022/06/22 10:21:07;;;;;;;5.07;3.40;;;31.40;60.30;;;;;;5029639;28;20208;-75
2022/06/22 10:23:39;;;;;;;3.65;1.77;;;31.80;60.70;;;;;;5021847;28;20217;-75
2022/06/22 10:26:22;;;;;;;6.40;3.58;;;31.40;59.00;;;;;;5031254;28;20299;-75
2022/06/22 10:29:06;;;;;;;6.82;1.88;;;30.90;59.80;;;;;;5026164;28;20219;-76
2022/06/22 10:31:54;;;;;;;4.15;2.13;;;31.00;59.90;;;;;;5025566;28;20227;-76
2022/06/22 10:35:05;;;;;;;3.05;1.40;;;31.00;60.50;;;;;;5025534;28;21756;-77
2022/06/22 10:37:40;;;;;;;6.07;1.75;;;30.90;59.40;;;;;;4991076;28;20658;-77
2022/06/22 10:46:44;;;;;;;10.98;1.75;;;31.40;60.10;;;;;;5020378;28;20195;-76
2022/06/22 10:49:28;;;;;;;3.63;1.42;;;31.20;58.00;;;;;;5026980;28;20173;-76
2022/06/22 10:52:14;;;;;;;2.80;2.03;;;30.80;58.80;;;;;;5019084;28;20316;-75
2022/06/22 10:54:59;;;;;;;4.05;1.40;;;30.70;59.80;;;;;;5027474;28;20200;-76
2022/06/22 10:57:46;;;;;;;7.13;1.35;;;31.20;60.40;;;;;;5022602;28;20213;-73
2022/06/22 11:00:27;;;;;;;7.88;2.17;;;31.20;62.70;;;;;;5027845;28;20200;-74
2022/06/22 11:03:33;;;;;;;6.07;2.08;;;31.30;67.30;;;;;;5022992;28;20230;-73
2022/06/22 11:06:36;;;;;;;5.53;2.42;;;31.40;68.40;;;;;;5022438;28;20205;-74
2022/06/22 11:09:14;;;;;;;4.70;1.27;;;30.70;60.60;;;;;;5018629;28;20535;-73
2022/06/22 11:11:57;;;;;;;2.65;1.30;;;30.70;60.50;;;;;;5016961;28;20213;-72
2022/06/22 11:14:41;;;;;;;5.60;2.00;;;30.20;60.20;;;;;;5019625;28;20211;-72
2022/06/22 11:17:39;;;;;;;3.17;1.80;;;30.00;62.20;;;;;;5014885;28;20284;-75
2022/06/22 11:20:42;;;;;;;6.75;2.80;;;29.30;62.50;;;;;;5018936;28;20300;-73
2022/06/22 11:23:15;;;;;;;4.65;2.03;;;29.70;64.30;;;;;;5013938;28;20215;-74
2022/06/22 11:31:45;;;;;;;1.88;1.30;;;30.30;63.00;;;;;;5022503;28;20281;-74
2022/06/22 11:34:32;;;;;;;3.08;1.40;;;30.40;62.40;;;;;;5018777;28;20180;-74
2022/06/22 11:37:15;;;;;;;4.13;1.90;;;30.50;61.90;;;;;;5021084;28;20237;-74
2022/06/22 11:40:23;;;;;;;2.78;1.23;;;30.40;60.40;;;;;;5028738;28;20598;-74
2022/06/22 11:43:26;;;;;;;3.05;1.52;;;30.30;60.70;;;;;;5023461;28;20728;-74
2022/06/22 11:46:09;;;;;;;9.00;1.67;;;30.30;61.10;;;;;;5013691;28;20220;-75
2022/06/22 11:49:14;;;;;;;2.20;1.27;;;30.50;60.90;;;;;;5023605;28;20208;-75
2022/06/22 11:52:14;;;;;;;2.33;1.35;;;30.50;60.40;;;;;;5023402;28;20310;-74
2022/06/22 11:54:57;;;;;;;1.77;1.10;;;30.50;60.40;;;;;;5027082;28;20204;-75
2022/06/22 11:57:53;;;;;;;2.80;1.42;;;30.50;60.30;;;;;;5020341;28;20201;-76
2022/06/22 12:00:47;;;;;;;5.35;2.10;;;30.30;61.10;;;;;;5024321;28;20200;-75
2022/06/22 12:03:30;;;;;;;3.13;1.27;;;30.30;61.70;;;;;;5017493;28;20220;-76
2022/06/22 12:06:42;;;;;;;5.00;1.35;;;30.20;60.20;;;;;;5021813;28;20205;-74
2022/06/22 12:09:42;;;;;;;4.28;1.58;;;30.10;61.20;;;;;;5008000;28;20711;-74
2022/06/22 12:12:28;;;;;;;2.08;1.30;;;29.40;60.40;;;;;;5020004;28;20263;-74
2022/06/22 12:15:28;;;;;;;3.10;1.63;;;29.60;61.90;;;;;;5031582;28;20200;-74
2022/06/22 12:18:31;;;;;;;1.83;1.20;;;29.70;60.90;;;;;;5003319;28;20384;-74
2022/06/22 12:21:17;;;;;;;3.35;1.38;;;29.80;62.70;;;;;;5023259;28;20230;-74
2022/06/22 12:24:08;;;;;;;3.13;1.23;;;29.60;63.10;;;;;;5025586;28;20254;-74
2022/06/22 12:27:03;;;;;;;3.17;1.40;;;29.70;63.40;;;;;;5021102;28;20208;-74
2022/06/22 12:29:47;;;;;;;1.55;1.30;;;29.60;63.00;;;;;;5025054;28;20204;-74
2022/06/22 12:32:31;;;;;;;2.03;1.70;;;29.20;63.30;;;;;;5019001;28;20248;-74
2022/06/22 12:35:13;;;;;;;4.30;1.63;;;29.30;63.40;;;;;;5016556;28;20236;-74
2022/06/22 12:38:20;;;;;;;4.07;1.45;;;29.30;61.80;;;;;;5018892;28;20209;-74
2022/06/22 12:41:02;;;;;;;3.55;1.52;;;29.30;61.70;;;;;;5017426;28;20207;-74
2022/06/22 12:43:36;;;;;;;3.10;2.20;;;29.00;61.20;;;;;;5018432;28;20208;-74
2022/06/22 12:46:34;;;;;;;2.72;1.92;;;29.00;61.40;;;;;;5013519;28;20177;-76
2022/06/22 12:49:15;;;;;;;2.08;1.42;;;28.80;61.30;;;;;;5018732;28;20650;-74
2022/06/22 12:51:46;;;;;;;2.92;1.40;;;29.00;60.80;;;;;;5015965;28;20212;-74
2022/06/22 12:54:19;;;;;;;3.40;1.80;;;29.00;61.60;;;;;;5018199;28;20232;-76
2022/06/22 12:57:09;;;;;;;2.20;1.33;;;29.00;62.10;;;;;;5022174;28;20201;-74
2022/06/22 13:00:01;;;;;;;2.17;1.65;;;29.00;61.60;;;;;;5016415;28;20209;-74
2022/06/22 13:02:30;;;;;;;2.92;1.38;;;29.10;62.50;;;;;;5015714;28;20209;-74
2022/06/22 13:05:13;;;;;;;1.88;1.23;;;29.20;62.40;;;;;;5018801;28;20207;-75
2022/06/22 13:07:55;;;;;;;2.75;1.40;;;29.30;60.60;;;;;;5024982;28;20630;-74
2022/06/22 13:10:24;;;;;;;4.88;1.35;;;29.20;62.00;;;;;;5019100;28;20262;-73
2022/06/22 13:13:06;;;;;;;3.15;1.40;;;29.00;60.40;;;;;;5016317;28;20219;-76
2022/06/22 13:15:54;;;;;;;2.58;1.40;;;28.90;62.20;;;;;;5018425;28;20267;-75
2022/06/22 13:18:38;;;;;;;3.90;1.45;;;29.10;63.30;;;;;;5014442;28;20255;-76
2022/06/22 13:21:17;;;;;;;3.33;1.58;;;29.20;62.70;;;;;;5030895;28;20246;-76
2022/06/22 13:24:03;;;;;;;2.65;1.17;;;29.00;63.00;;;;;;5014169;28;20235;-75
2022/06/22 13:46:48;;;;;;;3.60;1.70;;;28.30;64.80;;;;;;4983704;28;20300;-75
2022/06/22 13:49:31;;;;;;;3.38;1.48;;;28.30;65.10;;;;;;5004446;28;20250;-75
2022/06/22 13:52:12;;;;;;;3.15;1.27;;;28.40;65.00;;;;;;5024748;28;20216;-75
2022/06/22 13:54:51;;;;;;;3.50;1.42;;;28.40;64.00;;;;;;5031279;28;20335;-74
2022/06/22 13:57:39;;;;;;;6.15;3.75;;;28.40;64.00;;;;;;5030841;28;20212;-74
2022/06/22 14:00:13;;;;;;;6.47;2.40;;;28.50;64.40;;;;;;5029849;28;20250;-75
2022/06/22 14:02:47;;;;;;;5.13;1.33;;;28.60;64.40;;;;;;5029787;28;20228;-74
2022/06/22 14:05:38;;;;;;;5.10;1.92;;;28.30;63.20;;;;;;5029570;28;20720;-73
2022/06/22 14:08:10;;;;;;;2.45;1.13;;;27.90;63.50;;;;;;5023904;28;20207;-75
2022/06/22 14:10:48;;;;;;;3.22;1.30;;;27.90;63.60;;;;;;5029663;28;20276;-74
2022/06/22 14:13:13;;;;;;;2.22;1.48;;;28.00;63.80;;;;;;5031080;28;20202;-74
2022/06/22 14:15:54;;;;;;;6.57;1.92;;;28.20;65.10;;;;;;5030745;28;20247;-75
2022/06/22 14:18:36;;;;;;;2.97;1.38;;;28.40;65.00;;;;;;5029157;28;20215;-75
2022/06/22 14:21:13;;;;;;;3.80;1.80;;;28.50;64.30;;;;;;5030157;28;20262;-75
2022/06/22 14:23:40;;;;;;;3.20;1.50;;;28.60;64.50;;;;;;5030788;28;20258;-74
2022/06/22 14:26:48;;;;;;;5.38;2.08;;;28.60;65.80;;;;;;5031391;28;20227;-75
2022/06/22 14:29:35;;;;;;;3.97;1.70;;;28.70;65.40;;;;;;5032287;28;20597;-75
2022/06/22 14:32:10;;;;;;;3.78;1.60;;;28.70;64.70;;;;;;5034949;28;20217;-75
2022/06/22 14:35:05;;;;;;;3.75;1.55;;;28.80;64.50;;;;;;5032938;28;20257;-76
2022/06/22 14:37:39;;;;;;;2.08;1.30;;;28.90;64.70;;;;;;5034420;28;20763;-75